Svartfoss — V2PR3 — position and weather

sailwx.info

Track history (hours):
 
Tides and Currents Weather Stations Pressure Air Temp Water Temp Dewpoint Dewpoint Depression Visibility Wind Speed Wind Dir Waves Ship Positions

Svartfoss

Last reported at 2016-Feb-13 03:25 UTC. Time now 2016-Feb-13 19:22 UTC.
Position N 59°55' E 005°31'.

Length 80 m; draft 5.7 m.

Type: Cargo ship. MMSI: 304882000.

Date/timePositionNaut miles runAvg speedWind from/ knotsBaromVisibWave heightAir tempDewpointWater temp
2016-Feb-13 03:25N 59°55' E 005°31'1213.5
2016-Feb-13 02:33N 59°43' E 005°27'1414.1
2016-Feb-13 01:32N 59°31' E 005°13'1313.4
2016-Feb-13 00:32N 59°18' E 005°20'1414.5
2016-Feb-12 23:33N 59°05' E 005°32'10 9.6
2016-Feb-12 22:33N 58°58' E 005°45'4 3.8
2016-Feb-12 21:34N 59°01' E 005°42'1111.2
2016-Feb-12 20:33N 58°52' E 005°31'1515.0
2016-Feb-12 19:33N 58°39' E 005°14'33614.6
2016-Feb-11 20:32N 53°44' E 000°26'1414.1
2016-Feb-11 19:33N 53°33' E 000°12'1010.0
2016-Feb-11 18:34N 53°35' W 000°04'0 0.4
2016-Feb-11 17:34N 53°35' W 000°04'0 0.0
2016-Feb-11 16:33N 53°35' W 000°04'0 0.0
2016-Feb-11 15:33N 53°35' W 000°04'0 0.0
2016-Feb-11 14:33N 53°35' W 000°04'0 0.0
2016-Feb-11 13:33N 53°35' W 000°04'0 0.0
2016-Feb-11 12:33N 53°35' W 000°04'0 0.0
2016-Feb-11 11:33N 53°35' W 000°04'0 0.0
2016-Feb-11 10:33N 53°35' W 000°04'0 0.0
2016-Feb-11 09:33N 53°35' W 000°04'0 0.0
2016-Feb-11 08:33N 53°35' W 000°04'0 0.0
2016-Feb-11 07:33N 53°35' W 000°04'0 0.0
2016-Feb-11 06:33N 53°35' W 000°04'0 0.0
2016-Feb-11 05:33N 53°35' W 000°04'0 0.0
2016-Feb-11 04:33N 53°35' W 000°04'0 0.0
2016-Feb-11 03:33N 53°35' W 000°04'0 0.0
2016-Feb-11 02:33N 53°35' W 000°04'0 0.0
2016-Feb-11 01:33N 53°35' W 000°04'0 0.0
2016-Feb-11 00:33N 53°35' W 000°04'0 0.0
2016-Feb-10 23:33N 53°35' W 000°04'0 0.0
2016-Feb-10 22:33N 53°35' W 000°04'0 0.0
2016-Feb-10 21:33N 53°35' W 000°04'0 0.0
2016-Feb-10 20:33N 53°35' W 000°04'0 0.0
2016-Feb-10 19:33N 53°35' W 000°04'0 0.0
2016-Feb-10 18:32N 53°35' W 000°04'0 0.0
2016-Feb-10 17:33N 53°35' W 000°04'0 0.0
2016-Feb-10 16:29N 53°35' W 000°04'0 0.0
2016-Feb-10 15:33N 53°35' W 000°04'0 0.0
2016-Feb-10 14:32N 53°35' W 000°04'0 0.0
2016-Feb-10 13:32N 53°35' W 000°04'0 0.0
2016-Feb-10 12:32N 53°35' W 000°04'0 0.0
2016-Feb-10 11:32N 53°35' W 000°04'0 0.0
2016-Feb-10 10:32N 53°35' W 000°04'0 0.0
2016-Feb-10 09:32N 53°35' W 000°04'0 0.0
2016-Feb-10 08:32N 53°35' W 000°04'0 0.0
2016-Feb-10 07:32N 53°35' W 000°04'0 0.0
2016-Feb-10 06:32N 53°35' W 000°04'0 0.5
2016-Feb-10 05:34N 53°35' W 000°04'8 7.7
2016-Feb-10 04:32N 53°33' E 000°09'5 5.6
2016-Feb-10 03:33N 53°32' E 000°18'10711.7
2016-Feb-09 18:23N 52°47' E 003°00'1113.7
2016-Feb-09 17:34N 52°43' E 003°18'1414.0
2016-Feb-09 16:34N 52°38' E 003°39'1413.9
2016-Feb-09 15:33N 52°33' E 004°01'1413.6
2016-Feb-09 14:33N 52°30' E 004°23'8 8.3
2016-Feb-09 13:33N 52°28' E 004°36'2 2.4
2016-Feb-09 12:33N 52°28' E 004°40'0 0.0
2016-Feb-09 11:30N 52°28' E 004°40'0 0.0
2016-Feb-09 10:30N 52°28' E 004°40'0 0.0
2016-Feb-09 09:33N 52°28' E 004°40'0 0.0
2016-Feb-09 08:33N 52°28' E 004°40'0 0.0
2016-Feb-09 07:33N 52°28' E 004°40'0 0.0
2016-Feb-09 06:33N 52°28' E 004°40'0 0.0
2016-Feb-09 05:30N 52°28' E 004°40'0 0.0
2016-Feb-09 04:30N 52°28' E 004°40'0 0.0
2016-Feb-09 03:33N 52°28' E 004°40'0 0.0
2016-Feb-09 02:33N 52°28' E 004°40'0 0.0
2016-Feb-09 01:33N 52°28' E 004°40'0 0.0
2016-Feb-09 00:30N 52°28' E 004°40'0 0.0
2016-Feb-08 23:33N 52°28' E 004°40'0 0.0
2016-Feb-08 22:33N 52°28' E 004°40'0 0.0
2016-Feb-08 21:33N 52°28' E 004°40'0 0.0
2016-Feb-08 20:33N 52°28' E 004°40'0 0.0
2016-Feb-08 19:30N 52°28' E 004°40'0 0.0
2016-Feb-08 18:33N 52°28' E 004°40'0 0.0
2016-Feb-08 17:33N 52°28' E 004°40'0 0.0
2016-Feb-08 16:33N 52°28' E 004°40'0 0.0
2016-Feb-08 15:33N 52°28' E 004°40'0 0.0
2016-Feb-08 14:33N 52°28' E 004°40'0 0.0
2016-Feb-08 13:33N 52°28' E 004°40'0 0.0
2016-Feb-08 12:33N 52°28' E 004°40'0 0.0
2016-Feb-08 11:33N 52°28' E 004°40'0 0.0
2016-Feb-08 10:33N 52°28' E 004°40'0 0.0
2016-Feb-08 09:33N 52°28' E 004°40'0 0.0
2016-Feb-08 08:33N 52°28' E 004°40'0 0.0
2016-Feb-08 07:33N 52°28' E 004°40'0 0.0
2016-Feb-08 06:33N 52°28' E 004°40'0 0.3
2016-Feb-08 05:33N 52°28' E 004°39'4 4.2
2016-Feb-08 04:33N 52°28' E 004°33'8 7.9
2016-Feb-08 03:33N 52°36' E 004°30'7 7.0
2016-Feb-08 02:33N 52°43' E 004°30'5 5.1
2016-Feb-08 01:33N 52°48' E 004°31'62 6.5
2016-Feb-07 16:05N 53°48' E 004°49'4 6.7
2016-Feb-07 15:33N 53°50' E 004°55'8 8.3
2016-Feb-07 14:33N 53°58' E 004°56'8 8.2
2016-Feb-07 13:33N 54°05' E 005°05'1111.3
2016-Feb-07 12:32N 54°07' E 005°24'1110.2
2016-Feb-07 11:29N 54°14' E 005°38'250 8.9
2016-Feb-06 07:24N 58°23' E 005°18'1011.4
2016-Feb-06 06:33N 58°33' E 005°19'1111.3
2016-Feb-06 05:33N 58°44' E 005°20'9 9.0
2016-Feb-06 04:33N 58°52' E 005°30'5 4.7
2016-Feb-06 03:33N 58°56' E 005°34'1212.2
2016-Feb-06 02:34N 59°07' E 005°26'3210.6
2016-Feb-05 23:32N 59°39' E 005°19'1313.1
2016-Feb-05 22:33N 59°50' E 005°33'206 4.3
2016-Feb-03 22:14N 63°06' E 007°42'42 8.4
2016-Feb-03 17:17N 63°29' E 008°60'1013.3
2016-Feb-03 16:31N 63°34' E 009°20'1212.8
2016-Feb-03 15:33N 63°45' E 009°32'1313.2
2016-Feb-03 14:33N 63°56' E 009°47'5512.5
2016-Feb-03 10:09N 64°43' E 010°55'814.1
2016-Feb-03 09:33N 64°49' E 011°08'1413.9
2016-Feb-03 08:33N 64°58' E 011°33'1313.4
2016-Feb-03 07:34N 65°09' E 011°50'  
Track history (hours):
 
Tides and Currents Weather Stations Pressure Air Temp Water Temp Dewpoint Dewpoint Depression Visibility Wind Speed Wind Dir Waves Ship Positions

Svartfoss

Last reported at 2016-Feb-13 03:25 UTC. Time now 2016-Feb-13 19:22 UTC.
Position N 59°55' E 005°31'.

Length 80 m; draft 5.7 m.

Type: Cargo ship. MMSI: 304882000.

Date/timePositionNaut miles runAvg speedWind from/ knotsBaromVisibWave heightAir tempDewpointWater temp
2016-Feb-13 03:25N 59°55' E 005°31'1213.5
2016-Feb-13 02:33N 59°43' E 005°27'1414.1
2016-Feb-13 01:32N 59°31' E 005°13'1313.4
2016-Feb-13 00:32N 59°18' E 005°20'1414.5
2016-Feb-12 23:33N 59°05' E 005°32'10 9.6
2016-Feb-12 22:33N 58°58' E 005°45'4 3.8
2016-Feb-12 21:34N 59°01' E 005°42'1111.2
2016-Feb-12 20:33N 58°52' E 005°31'1515.0
2016-Feb-12 19:33N 58°39' E 005°14'33614.6
2016-Feb-11 20:32N 53°44' E 000°26'1414.1
2016-Feb-11 19:33N 53°33' E 000°12'1010.0
2016-Feb-11 18:34N 53°35' W 000°04'0 0.4
2016-Feb-11 17:34N 53°35' W 000°04'0 0.0
2016-Feb-11 16:33N 53°35' W 000°04'0 0.0
2016-Feb-11 15:33N 53°35' W 000°04'0 0.0
2016-Feb-11 14:33N 53°35' W 000°04'0 0.0
2016-Feb-11 13:33N 53°35' W 000°04'0 0.0
2016-Feb-11 12:33N 53°35' W 000°04'0 0.0
2016-Feb-11 11:33N 53°35' W 000°04'0 0.0
2016-Feb-11 10:33N 53°35' W 000°04'0 0.0
2016-Feb-11 09:33N 53°35' W 000°04'0 0.0
2016-Feb-11 08:33N 53°35' W 000°04'0 0.0
2016-Feb-11 07:33N 53°35' W 000°04'0 0.0
2016-Feb-11 06:33N 53°35' W 000°04'0 0.0
2016-Feb-11 05:33N 53°35' W 000°04'0 0.0
2016-Feb-11 04:33N 53°35' W 000°04'0 0.0
2016-Feb-11 03:33N 53°35' W 000°04'0 0.0
2016-Feb-11 02:33N 53°35' W 000°04'0 0.0
2016-Feb-11 01:33N 53°35' W 000°04'0 0.0
2016-Feb-11 00:33N 53°35' W 000°04'0 0.0
2016-Feb-10 23:33N 53°35' W 000°04'0 0.0
2016-Feb-10 22:33N 53°35' W 000°04'0 0.0
2016-Feb-10 21:33N 53°35' W 000°04'0 0.0
2016-Feb-10 20:33N 53°35' W 000°04'0 0.0
2016-Feb-10 19:33N 53°35' W 000°04'0 0.0
2016-Feb-10 18:32N 53°35' W 000°04'0 0.0
2016-Feb-10 17:33N 53°35' W 000°04'0 0.0
2016-Feb-10 16:29N 53°35' W 000°04'0 0.0
2016-Feb-10 15:33N 53°35' W 000°04'0 0.0
2016-Feb-10 14:32N 53°35' W 000°04'0 0.0
2016-Feb-10 13:32N 53°35' W 000°04'0 0.0
2016-Feb-10 12:32N 53°35' W 000°04'0 0.0
2016-Feb-10 11:32N 53°35' W 000°04'0 0.0
2016-Feb-10 10:32N 53°35' W 000°04'0 0.0
2016-Feb-10 09:32N 53°35' W 000°04'0 0.0
2016-Feb-10 08:32N 53°35' W 000°04'0 0.0
2016-Feb-10 07:32N 53°35' W 000°04'0 0.0
2016-Feb-10 06:32N 53°35' W 000°04'0 0.5
2016-Feb-10 05:34N 53°35' W 000°04'8 7.7
2016-Feb-10 04:32N 53°33' E 000°09'5 5.6
2016-Feb-10 03:33N 53°32' E 000°18'10711.7
2016-Feb-09 18:23N 52°47' E 003°00'1113.7
2016-Feb-09 17:34N 52°43' E 003°18'1414.0
2016-Feb-09 16:34N 52°38' E 003°39'1413.9
2016-Feb-09 15:33N 52°33' E 004°01'1413.6
2016-Feb-09 14:33N 52°30' E 004°23'8 8.3
2016-Feb-09 13:33N 52°28' E 004°36'2 2.4
2016-Feb-09 12:33N 52°28' E 004°40'0 0.0
2016-Feb-09 11:30N 52°28' E 004°40'0 0.0
2016-Feb-09 10:30N 52°28' E 004°40'0 0.0
2016-Feb-09 09:33N 52°28' E 004°40'0 0.0
2016-Feb-09 08:33N 52°28' E 004°40'0 0.0
2016-Feb-09 07:33N 52°28' E 004°40'0 0.0
2016-Feb-09 06:33N 52°28' E 004°40'0 0.0
2016-Feb-09 05:30N 52°28' E 004°40'0 0.0
2016-Feb-09 04:30N 52°28' E 004°40'0 0.0
2016-Feb-09 03:33N 52°28' E 004°40'0 0.0
2016-Feb-09 02:33N 52°28' E 004°40'0 0.0
2016-Feb-09 01:33N 52°28' E 004°40'0 0.0
2016-Feb-09 00:30N 52°28' E 004°40'0 0.0
2016-Feb-08 23:33N 52°28' E 004°40'0 0.0
2016-Feb-08 22:33N 52°28' E 004°40'0 0.0
2016-Feb-08 21:33N 52°28' E 004°40'0 0.0
2016-Feb-08 20:33N 52°28' E 004°40'0 0.0
2016-Feb-08 19:30N 52°28' E 004°40'0 0.0
2016-Feb-08 18:33N 52°28' E 004°40'0 0.0
2016-Feb-08 17:33N 52°28' E 004°40'0 0.0
2016-Feb-08 16:33N 52°28' E 004°40'0 0.0
2016-Feb-08 15:33N 52°28' E 004°40'0 0.0
2016-Feb-08 14:33N 52°28' E 004°40'0 0.0
2016-Feb-08 13:33N 52°28' E 004°40'0 0.0
2016-Feb-08 12:33N 52°28' E 004°40'0 0.0
2016-Feb-08 11:33N 52°28' E 004°40'0 0.0
2016-Feb-08 10:33N 52°28' E 004°40'0 0.0
2016-Feb-08 09:33N 52°28' E 004°40'0 0.0
2016-Feb-08 08:33N 52°28' E 004°40'0 0.0
2016-Feb-08 07:33N 52°28' E 004°40'0 0.0
2016-Feb-08 06:33N 52°28' E 004°40'0 0.3
2016-Feb-08 05:33N 52°28' E 004°39'4 4.2
2016-Feb-08 04:33N 52°28' E 004°33'8 7.9
2016-Feb-08 03:33N 52°36' E 004°30'7 7.0
2016-Feb-08 02:33N 52°43' E 004°30'5 5.1
2016-Feb-08 01:33N 52°48' E 004°31'62 6.5
2016-Feb-07 16:05N 53°48' E 004°49'4 6.7
2016-Feb-07 15:33N 53°50' E 004°55'8 8.3
2016-Feb-07 14:33N 53°58' E 004°56'8 8.2
2016-Feb-07 13:33N 54°05' E 005°05'1111.3
2016-Feb-07 12:32N 54°07' E 005°24'1110.2
2016-Feb-07 11:29N 54°14' E 005°38'250 8.9
2016-Feb-06 07:24N 58°23' E 005°18'1011.4
2016-Feb-06 06:33N 58°33' E 005°19'1111.3
2016-Feb-06 05:33N 58°44' E 005°20'9 9.0
2016-Feb-06 04:33N 58°52' E 005°30'5 4.7
2016-Feb-06 03:33N 58°56' E 005°34'1212.2
2016-Feb-06 02:34N 59°07' E 005°26'3210.6
2016-Feb-05 23:32N 59°39' E 005°19'1313.1
2016-Feb-05 22:33N 59°50' E 005°33'206 4.3
2016-Feb-03 22:14N 63°06' E 007°42'42 8.4
2016-Feb-03 17:17N 63°29' E 008°60'1013.3
2016-Feb-03 16:31N 63°34' E 009°20'1212.8
2016-Feb-03 15:33N 63°45' E 009°32'1313.2
2016-Feb-03 14:33N 63°56' E 009°47'5512.5
2016-Feb-03 10:09N 64°43' E 010°55'814.1
2016-Feb-03 09:33N 64°49' E 011°08'1413.9
2016-Feb-03 08:33N 64°58' E 011°33'1313.4
2016-Feb-03 07:34N 65°09' E 011°50'  

Dump ship's entire track history